| time (UTC) | temp F | wind direction | speed MPH | gust MPH | rain 1hr in | rain 24hr in | rain mn in | humidity % | barometer mb |
| 20260902134735 | 84 | 272 | 2.0 | 3.0 | 0.00 | 0.00 | 0.00 | 66 | 987.1 |
| 20260902134235 | 83 | 198 | 2.0 | 3.0 | 0.00 | 0.00 | 0.00 | 68 | 987.1 |
| 20260902133735 | 83 | 235 | 0.0 | 2.0 | 0.00 | 0.00 | 0.00 | 71 | 987.1 |
| 20260902133235 | 84 | 209 | 1.0 | 2.0 | 0.00 | 0.00 | 0.00 | 70 | 987.1 |
| 20260902132735 | 85 | 89 | 0.0 | 2.0 | 0.00 | 0.00 | 0.00 | 68 | 987.5 |
| 20260902132235 | 84 | 44 | 0.0 | 2.0 | 0.00 | 0.00 | 0.00 | 70 | 987.1 |
| 20260902131735 | 84 | 89 | 0.0 | 2.0 | 0.00 | 0.00 | 0.00 | 69 | 987.1 |
| 20260902131235 | 84 | 250 | 0.0 | 1.0 | 0.00 | 0.00 | 0.00 | 70 | 987.1 |
| 20260902130735 | 82 | 297 | 0.0 | 1.0 | 0.00 | 0.00 | 0.00 | 71 | 987.1 |
| 20260902130235 | 82 | 297 | 0.0 | 1.0 | 0.00 | 0.00 | 0.00 | 71 | 987.1 |
| 20260902125735 | 83 | 119 | 0.0 | 1.0 | 0.00 | 0.00 | 0.00 | 68 | 987.1 |
| 20260902125235 | 82 | 102 | 0.0 | 1.0 | 0.00 | 0.00 | 0.00 | 71 | 987.1 |
| 20260902124735 | 80 | 129 | 0.0 | 0.0 | 0.00 | 0.00 | 0.00 | 74 | 987.1 |
| 20260902124235 | 78 | 75 | 0.0 | 1.0 | 0.00 | 0.00 | 0.00 | 76 | 986.8 |
| 20260902123735 | 78 | 230 | 0.0 | 1.0 | 0.00 | 0.00 | 0.00 | 74 | 986.8 |
| 20260902123235 | 78 | 315 | 0.0 | 0.0 | 0.00 | 0.00 | 0.00 | 75 | 987.1 |
| 20260902122735 | 77 | 297 | 0.0 | 1.0 | 0.00 | 0.00 | 0.00 | 77 | 986.8 |
| 20260902122235 | 76 | 37 | 0.0 | 2.0 | 0.00 | 0.00 | 0.00 | 78 | 986.8 |
| 20260902121735 | 76 | 135 | 0.0 | 2.0 | 0.00 | 0.00 | 0.00 | 77 | 986.8 |
| 20260902121235 | 76 | 135 | 0.0 | 1.0 | 0.00 | 0.00 | 0.00 | 77 | 986.8 |
| 20260902120735 | 76 | 124 | 0.0 | 0.0 | 0.00 | 0.00 | 0.00 | 77 | 986.8 |
| 20260902120235 | 75 | 104 | 0.0 | 0.0 | 0.00 | 0.00 | 0.00 | 77 | 986.8 |
| 20260902115735 | 75 | 135 | 0.0 | 1.0 | 0.00 | 0.00 | 0.00 | 78 | 986.5 |
| 20260902115235 | 74 | 55 | 0.0 | 1.0 | 0.00 | 0.00 | 0.00 | 78 | 986.5 |
| 20260902114735 | 74 | 343 | 0.0 | 1.0 | 0.00 | 0.00 | 0.00 | 80 | 986.5 |
| 20260902114235 | 74 | 173 | 0.0 | 1.0 | 0.00 | 0.00 | 0.00 | 81 | 986.5 |
| 20260902113735 | 74 | 129 | 0.0 | 1.0 | 0.00 | 0.00 | 0.00 | 80 | 986.5 |
| 20260902113234 | 74 | 142 | 0.0 | 2.0 | 0.00 | 0.00 | 0.00 | 79 | 986.5 |
| 20260902112735 | 74 | 135 | 0.0 | 2.0 | 0.00 | 0.00 | 0.00 | 78 | 986.5 |
| 20260902112235 | 74 | 50 | 0.0 | 1.0 | 0.00 | 0.00 | 0.00 | 80 | 986.5 |
| 20260902111735 | 75 | 37 | 0.0 | 1.0 | 0.00 | 0.00 | 0.00 | 79 | 986.1 |
| 20260902111235 | 75 | 309 | 0.0 | 1.0 | 0.00 | 0.00 | 0.00 | 77 | 986.5 |
| 20260902110735 | 75 | 282 | 0.0 | 2.0 | 0.00 | 0.00 | 0.00 | 76 | 986.1 |
| 20260902110235 | 74 | 183 | 0.0 | 2.0 | 0.00 | 0.00 | 0.00 | 78 | 986.1 |
| 20260902105735 | 74 | 224 | 0.0 | 1.0 | 0.00 | 0.00 | 0.00 | 80 | 986.1 |
| 20260902105235 | 73 | 156 | 0.0 | 1.0 | 0.00 | 0.00 | 0.00 | 81 | 986.1 |
| 20260902104735 | 73 | 148 | 0.0 | 1.0 | 0.00 | 0.00 | 0.00 | 84 | 986.1 |
| 20260902104234 | 72 | 336 | 0.0 | 2.0 | 0.00 | 0.00 | 0.00 | 85 | 985.8 |
| 20260902103735 | 72 | 37 | 0.0 | 2.0 | 0.00 | 0.00 | 0.00 | 85 | 985.4 |
| 20260902103235 | 73 | 197 | 1.0 | 1.0 | 0.00 | 0.00 | 0.00 | 85 | 985.8 |
| 20260902102734 | 73 | 50 | 0.0 | 1.0 | 0.00 | 0.00 | 0.00 | 83 | 985.8 |
| 20260902102235 | 73 | 299 | 0.0 | 2.0 | 0.00 | 0.00 | 0.00 | 81 | 985.8 |
| 20260902101735 | 73 | 76 | 0.0 | 2.0 | 0.00 | 0.00 | 0.00 | 82 | 985.8 |
| 20260902101235 | 73 | 87 | 1.0 | 2.0 | 0.00 | 0.00 | 0.00 | 84 | 985.8 |
| 20260902100735 | 72 | 180 | 0.0 | 2.0 | 0.00 | 0.00 | 0.00 | 85 | 985.4 |
| 20260902100235 | 72 | 70 | 0.0 | 2.0 | 0.00 | 0.00 | 0.00 | 86 | 985.4 |
| 20260902095735 | 72 | 127 | 0.0 | 2.0 | 0.00 | 0.00 | 0.00 | 87 | 985.4 |
| 20260902095235 | 72 | 172 | 1.0 | 3.0 | 0.00 | 0.00 | 0.00 | 86 | 985.8 |
| 20260902094734 | 71 | 335 | 0.0 | 3.0 | 0.00 | 0.00 | 0.00 | 88 | 985.4 |
| 20260902094235 | 71 | 330 | 1.0 | 2.0 | 0.00 | 0.00 | 0.00 | 88 | 985.4 |
| 20260902093735 | 71 | 222 | 0.0 | 2.0 | 0.00 | 0.00 | 0.00 | 89 | 985.4 |
| 20260902093235 | 71 | 180 | 0.0 | 1.0 | 0.00 | 0.00 | 0.00 | 88 | 985.4 |
| 20260902092735 | 73 | 115 | 1.0 | 2.0 | 0.00 | 0.00 | 0.00 | 84 | 985.1 |
| 20260902092234 | 74 | 154 | 0.0 | 2.0 | 0.00 | 0.00 | 0.00 | 80 | 985.4 |
| 20260902091735 | 77 | 123 | 1.0 | 2.0 | 0.00 | 0.00 | 0.00 | 74 | 985.4 |
| 20260902091234 | 79 | 92 | 2.0 | 2.0 | 0.00 | 0.00 | 0.00 | 70 | 985.1 |
| 20260902090734 | 80 | 72 | 1.0 | 3.0 | 0.00 | 0.00 | 0.00 | 67 | 985.1 |
| 20260902090234 | 80 | 246 | 0.0 | 3.0 | 0.00 | 0.00 | 0.00 | 65 | 985.4 |
| 20260902085735 | 79 | 248 | 3.0 | 3.0 | 0.00 | 0.00 | 0.00 | 66 | 985.1 |
| 20260902085235 | 79 | 236 | 0.0 | 3.0 | 0.00 | 0.00 | 0.00 | 66 | 985.4 |
| 20260902084735 | 80 | 56 | 2.0 | 3.0 | 0.00 | 0.00 | 0.00 | 65 | 985.1 |
| 20260902084234 | 80 | 35 | 0.0 | 3.0 | 0.00 | 0.00 | 0.00 | 64 | 984.8 |
| 20260902083734 | 80 | 293 | 0.0 | 3.0 | 0.00 | 0.00 | 0.00 | 64 | 985.1 |
| 20260902083235 | 80 | 225 | 1.0 | 3.0 | 0.00 | 0.00 | 0.00 | 65 | 985.4 |
| 20260902082735 | 80 | 235 | 2.0 | 3.0 | 0.00 | 0.00 | 0.00 | 65 | 985.1 |
| 20260902082235 | 80 | 232 | 2.0 | 2.0 | 0.00 | 0.00 | 0.00 | 65 | 985.1 |
| 20260902081735 | 79 | 259 | 1.0 | 2.0 | 0.00 | 0.00 | 0.00 | 65 | 985.1 |
| 20260902081235 | 80 | 113 | 0.0 | 2.0 | 0.00 | 0.00 | 0.00 | 65 | 985.1 |
| 20260902080735 | 80 | 284 | 0.0 | 2.0 | 0.00 | 0.00 | 0.00 | 65 | 985.1 |
| 20260902080234 | 79 | 211 | 0.0 | 2.0 | 0.00 | 0.00 | 0.00 | 66 | 985.1 |
| 20260902075735 | 78 | 254 | 2.0 | 2.0 | 0.00 | 0.00 | 0.00 | 67 | 985.1 |
| 20260902075235 | 77 | 235 | 0.0 | 2.0 | 0.00 | 0.00 | 0.00 | 68 | 985.4 |
| 20260902074735 | 77 | 283 | 0.0 | 2.0 | 0.00 | 0.00 | 0.00 | 69 | 985.1 |
| 20260902074235 | 77 | 280 | 0.0 | 2.0 | 0.00 | 0.00 | 0.00 | 70 | 985.1 |
| 20260902073735 | 77 | 249 | 0.0 | 2.0 | 0.00 | 0.00 | 0.00 | 70 | 985.1 |
| 20260902073235 | 77 | 352 | 0.0 | 2.0 | 0.00 | 0.00 | 0.00 | 70 | 985.1 |
| 20260902072734 | 77 | 173 | 0.0 | 2.0 | 0.00 | 0.00 | 0.00 | 70 | 985.1 |
| 20260902072235 | 77 | 149 | 0.0 | 1.0 | 0.00 | 0.00 | 0.00 | 69 | 985.1 |
| 20260902071734 | 78 | 124 | 0.0 | 1.0 | 0.00 | 0.00 | 0.00 | 67 | 985.4 |
| 20260902071234 | 78 | 25 | 0.0 | 1.0 | 0.00 | 0.00 | 0.00 | 65 | 985.1 |
| 20260902070735 | 78 | 224 | 0.0 | 1.0 | 0.00 | 0.00 | 0.00 | 65 | 985.1 |
| 20260902070234 | 79 | 217 | 0.0 | 1.0 | 0.00 | 0.00 | 0.00 | 65 | 985.1 |
| 20260902065734 | 79 | 191 | 0.0 | 1.0 | 0.00 | 0.00 | 0.00 | 65 | 985.1 |
| 20260902065235 | 79 | 137 | 0.0 | 1.0 | 0.00 | 0.00 | 0.00 | 64 | 985.1 |
| 20260902064735 | 79 | 110 | 0.0 | 2.0 | 0.00 | 0.00 | 0.00 | 63 | 985.1 |
| 20260902064235 | 80 | 126 | 0.0 | 2.0 | 0.00 | 0.00 | 0.00 | 63 | 985.1 |
| 20260902063734 | 80 | 60 | 0.0 | 2.0 | 0.00 | 0.00 | 0.00 | 61 | 985.1 |
| 20260902063234 | 80 | 184 | 0.0 | 6.0 | 0.00 | 0.00 | 0.00 | 62 | 985.4 |
| 20260902062734 | 80 | 257 | 1.0 | 6.0 | 0.00 | 0.00 | 0.00 | 62 | 985.1 |
| 20260902062234 | 79 | 237 | 2.0 | 3.0 | 0.00 | 0.00 | 0.00 | 63 | 985.4 |
| 20260902061735 | 79 | 160 | 0.0 | 3.0 | 0.00 | 0.00 | 0.00 | 65 | 985.1 |
| 20260902061234 | 78 | 286 | 0.0 | 1.0 | 0.00 | 0.00 | 0.00 | 65 | 985.1 |
| 20260902060734 | 78 | 169 | 0.0 | 1.0 | 0.00 | 0.00 | 0.00 | 65 | 985.1 |
| 20260902060234 | 78 | 89 | 0.0 | 2.0 | 0.00 | 0.00 | 0.00 | 65 | 985.1 |
| 20260902055735 | 78 | 121 | 0.0 | 2.0 | 0.00 | 0.00 | 0.00 | 66 | 985.4 |
| 20260902055234 | 78 | 129 | 0.0 | 2.0 | 0.00 | 0.00 | 0.00 | 66 | 985.1 |
| 20260902054735 | 78 | 180 | 0.0 | 1.0 | 0.00 | 0.00 | 0.00 | 67 | 985.4 |
| 20260902054234 | 78 | 150 | 1.0 | 2.0 | 0.00 | 0.00 | 0.00 | 67 | 985.1 |
| 20260902053735 | 78 | 76 | 0.0 | 2.0 | 0.00 | 0.00 | 0.00 | 67 | 985.1 |
| 20260902053235 | 78 | 135 | 0.0 | 3.0 | 0.00 | 0.00 | 0.00 | 67 | 985.1 |
| 20260902052734 | 78 | 252 | 0.0 | 3.0 | 0.00 | 0.00 | 0.00 | 68 | 985.1 |
| 20260902052234 | 78 | 324 | 0.0 | 2.0 | 0.00 | 0.00 | 0.00 | 68 | 985.1 |
| 20260902051735 | 78 | 44 | 0.0 | 2.0 | 0.00 | 0.00 | 0.00 | 68 | 985.1 |
| 20260902051235 | 78 | 37 | 0.0 | 2.0 | 0.00 | 0.00 | 0.00 | 69 | 985.1 |
| 20260902050735 | 78 | 164 | 0.0 | 2.0 | 0.00 | 0.00 | 0.00 | 70 | 985.1 |
| 20260902050235 | 78 | 135 | 0.0 | 2.0 | 0.00 | 0.00 | 0.00 | 72 | 985.4 |
| 20260902045734 | 77 | 129 | 0.0 | 2.0 | 0.00 | 0.00 | 0.00 | 72 | 985.1 |
| 20260902045235 | 77 | 103 | 0.0 | 1.0 | 0.00 | 0.00 | 0.00 | 73 | 985.4 |
| 20260902044735 | 77 | 163 | 0.0 | 1.0 | 0.00 | 0.00 | 0.00 | 73 | 985.4 |
| 20260902044235 | 77 | 143 | 0.0 | 1.0 | 0.00 | 0.00 | 0.00 | 74 | 985.1 |
| 20260902043734 | 77 | 180 | 0.0 | 1.0 | 0.00 | 0.00 | 0.00 | 75 | 985.4 |
| 20260902043234 | 77 | 224 | 0.0 | 1.0 | 0.00 | 0.00 | 0.00 | 77 | 985.4 |
| 20260902042735 | 78 | 44 | 0.0 | 2.0 | 0.00 | 0.00 | 0.00 | 76 | 985.4 |
| 20260902042235 | 77 | 148 | 0.0 | 3.0 | 0.00 | 0.00 | 0.00 | 75 | 985.4 |
| 20260902041734 | 77 | 158 | 0.0 | 3.0 | 0.00 | 0.00 | 0.00 | 75 | 985.4 |
| 20260902041235 | 78 | 129 | 0.0 | 0.0 | 0.00 | 0.00 | 0.00 | 78 | 985.4 |
| 20260902040735 | 78 | 44 | 0.0 | 1.0 | 0.00 | 0.00 | 0.00 | 74 | 985.4 |
| 20260902040234 | 79 | 333 | 0.0 | 2.0 | 0.00 | 0.00 | 0.00 | 72 | 985.4 |
| 20260902035734 | 79 | 135 | 0.0 | 2.0 | 0.00 | 0.00 | 0.00 | 69 | 985.4 |
| 20260902035234 | 79 | 50 | 0.0 | 2.0 | 0.00 | 0.00 | 0.00 | 70 | 985.4 |
| 20260902034735 | 79 | 168 | 0.0 | 2.0 | 0.00 | 0.00 | 0.00 | 68 | 985.4 |
| 20260902034234 | 79 | 166 | 0.0 | 3.0 | 0.00 | 0.00 | 0.00 | 70 | 985.4 |
| 20260902033735 | 79 | 132 | 0.0 | 3.0 | 0.00 | 0.00 | 0.00 | 71 | 985.4 |
| 20260902033234 | 79 | 50 | 0.0 | 2.0 | 0.00 | 0.00 | 0.00 | 73 | 985.4 |
| 20260902032734 | 79 | 173 | 0.0 | 2.0 | 0.00 | 0.00 | 0.00 | 73 | 985.4 |
| 20260902032234 | 78 | 179 | 0.0 | 2.0 | 0.00 | 0.00 | 0.00 | 75 | 985.8 |
| 20260902031735 | 79 | 129 | 0.0 | 2.0 | 0.00 | 0.00 | 0.00 | 77 | 985.4 |
| 20260902031235 | 80 | 130 | 1.0 | 2.0 | 0.00 | 0.00 | 0.00 | 74 | 985.4 |
| 20260902030735 | 80 | 297 | 0.0 | 2.0 | 0.00 | 0.00 | 0.00 | 72 | 985.4 |
| 20260902030234 | 80 | 53 | 0.0 | 2.0 | 0.00 | 0.00 | 0.00 | 71 | 985.4 |
| 20260902025734 | 80 | 184 | 0.0 | 2.0 | 0.00 | 0.00 | 0.00 | 72 | 985.4 |
| 20260902025235 | 80 | 63 | 0.0 | 3.0 | 0.00 | 0.00 | 0.00 | 73 | 985.8 |
| 20260902024735 | 79 | 75 | 0.0 | 3.0 | 0.00 | 0.00 | 0.00 | 75 | 985.4 |
| 20260902024235 | 79 | 230 | 0.0 | 1.0 | 0.00 | 0.00 | 0.00 | 74 | 985.8 |
| 20260902023734 | 79 | 212 | 0.0 | 1.0 | 0.00 | 0.00 | 0.00 | 75 | 985.4 |
| 20260902023234 | 79 | 224 | 0.0 | 0.0 | 0.00 | 0.00 | 0.00 | 78 | 985.4 |
| 20260902022734 | 79 | 217 | 0.0 | 0.0 | 0.00 | 0.00 | 0.00 | 77 | 985.4 |
| 20260902022235 | 80 | 44 | 0.0 | 1.0 | 0.00 | 0.00 | 0.00 | 76 | 985.4 |
| 20260902021734 | 80 | 53 | 0.0 | 2.0 | 0.00 | 0.00 | 0.00 | 74 | 985.4 |
| 20260902021234 | 80 | 202 | 0.0 | 2.0 | 0.00 | 0.00 | 0.00 | 73 | 985.4 |
| 20260902020734 | 80 | 135 | 0.0 | 0.0 | 0.00 | 0.00 | 0.00 | 73 | 985.4 |
| 20260902020235 | 80 | 249 | 0.0 | 0.0 | 0.00 | 0.00 | 0.00 | 72 | 985.4 |
| 20260902015734 | 81 | 249 | 0.0 | 2.0 | 0.00 | 0.00 | 0.00 | 72 | 985.1 |
| 20260902015235 | 81 | 160 | 0.0 | 2.0 | 0.00 | 0.00 | 0.00 | 70 | 985.4 |
| 20260902014734 | 82 | 131 | 1.0 | 1.0 | 0.00 | 0.00 | 0.00 | 65 | 985.4 |
| 20260902014234 | 82 | 199 | 0.0 | 2.0 | 0.00 | 0.00 | 0.00 | 65 | 985.1 |
| 20260902013735 | 82 | 164 | 0.0 | 2.0 | 0.00 | 0.00 | 0.00 | 65 | 985.4 |
| 20260902013234 | 83 | 126 | 0.0 | 2.0 | 0.00 | 0.00 | 0.00 | 66 | 985.4 |
| 20260902012734 | 83 | 160 | 0.0 | 2.0 | 0.00 | 0.00 | 0.00 | 64 | 985.1 |
| 20260902012234 | 83 | 302 | 0.0 | 1.0 | 0.00 | 0.00 | 0.00 | 66 | 985.1 |
| 20260902011735 | 83 | 343 | 0.0 | 1.0 | 0.00 | 0.00 | 0.00 | 65 | 985.1 |
| 20260902011234 | 84 | 157 | 0.0 | 2.0 | 0.00 | 0.00 | 0.00 | 64 | 985.1 |
| 20260902010735 | 84 | 130 | 0.0 | 2.0 | 0.00 | 0.00 | 0.00 | 61 | 984.8 |
| 20260902010234 | 85 | 147 | 0.0 | 1.0 | 0.00 | 0.00 | 0.00 | 60 | 984.8 |
| 20260902005734 | 85 | 141 | 0.0 | 1.0 | 0.00 | 0.00 | 0.00 | 59 | 984.8 |
| 20260902005235 | 85 | 246 | 0.0 | 2.0 | 0.00 | 0.00 | 0.00 | 58 | 984.8 |
| 20260902004734 | 85 | 315 | 0.0 | 2.0 | 0.00 | 0.00 | 0.00 | 62 | 984.8 |
| 20260902004234 | 87 | 88 | 1.0 | 2.0 | 0.00 | 0.00 | 0.00 | 58 | 984.8 |
| 20260902003734 | 87 | 99 | 0.0 | 1.0 | 0.00 | 0.00 | 0.00 | 55 | 984.8 |
| 20260902003235 | 87 | 121 | 0.0 | 1.0 | 0.00 | 0.00 | 0.00 | 55 | 984.8 |
| 20260902002735 | 87 | 44 | 0.0 | 1.0 | 0.00 | 0.00 | 0.00 | 55 | 984.8 |
| 20260902002234 | 88 | 163 | 1.0 | 1.0 | 0.00 | 0.00 | 0.00 | 55 | 984.8 |
| 20260902001735 | 88 | 322 | 1.0 | 1.0 | 0.00 | 0.00 | 0.00 | 54 | 984.8 |
| 20260902001234 | 88 | 144 | 0.0 | 1.0 | 0.00 | 0.00 | 0.00 | 55 | 984.8 |
| 20260902000735 | 89 | 151 | 0.0 | 2.0 | 0.00 | 0.00 | 0.00 | 55 | 984.8 |
| 20260902000234 | 89 | 221 | 0.0 | 2.0 | 0.00 | 0.00 | 0.00 | 54 | 984.8 |
| 20260901235734 | 90 | 158 | 0.0 | 2.0 | 0.00 | 0.00 | 0.00 | 52 | 984.8 |
| 20260901235234 | 91 | 158 | 0.0 | 2.0 | 0.00 | 0.00 | 0.00 | 51 | 984.8 |
| 20260901234734 | 90 | 135 | 0.0 | 2.0 | 0.00 | 0.00 | 0.00 | 51 | 984.8 |
| 20260901234234 | 91 | 297 | 0.0 | 3.0 | 0.00 | 0.00 | 0.00 | 51 | 984.8 |
| 20260901233734 | 91 | 124 | 1.0 | 3.0 | 0.00 | 0.00 | 0.00 | 50 | 984.8 |
| 20260901233234 | 91 | 278 | 2.0 | 3.0 | 0.00 | 0.00 | 0.00 | 50 | 984.8 |
| 20260901232734 | 91 | 269 | 0.0 | 3.0 | 0.00 | 0.00 | 0.00 | 50 | 984.8 |
| 20260901232234 | 91 | 193 | 2.0 | 5.0 | 0.00 | 0.00 | 0.00 | 49 | 984.8 |
| 20260901231735 | 91 | 222 | 1.0 | 5.0 | 0.00 | 0.00 | 0.00 | 49 | 985.1 |
| 20260901231234 | 91 | 122 | 0.0 | 3.0 | 0.00 | 0.00 | 0.00 | 50 | 984.8 |
| 20260901230735 | 91 | 89 | 2.0 | 4.0 | 0.00 | 0.00 | 0.00 | 51 | 984.8 |
| 20260901230234 | 91 | 102 | 2.0 | 4.0 | 0.00 | 0.00 | 0.00 | 50 | 985.1 |
| 20260901225734 | 91 | 101 | 1.0 | 4.0 | 0.00 | 0.00 | 0.00 | 50 | 985.1 |
| 20260901225234 | 91 | 132 | 3.0 | 5.0 | 0.00 | 0.00 | 0.00 | 49 | 984.8 |
| 20260901224734 | 91 | 93 | 3.0 | 5.0 | 0.00 | 0.00 | 0.00 | 50 | 984.8 |
| 20260901224234 | 91 | 97 | 4.0 | 5.0 | 0.00 | 0.00 | 0.00 | 50 | 984.8 |
| 20260901223734 | 91 | 80 | 3.0 | 5.0 | 0.00 | 0.00 | 0.00 | 50 | 984.8 |
| 20260901223235 | 91 | 162 | 0.0 | 5.0 | 0.00 | 0.00 | 0.00 | 49 | 984.8 |
| 20260901222735 | 91 | 82 | 2.0 | 4.0 | 0.00 | 0.00 | 0.00 | 48 | 984.8 |
| 20260901222234 | 91 | 87 | 1.0 | 4.0 | 0.00 | 0.00 | 0.00 | 48 | 985.1 |
| 20260901221734 | 91 | 82 | 1.0 | 5.0 | 0.00 | 0.00 | 0.00 | 49 | 984.8 |
| 20260901221234 | 91 | 102 | 3.0 | 5.0 | 0.00 | 0.00 | 0.00 | 49 | 984.8 |
| 20260901220735 | 92 | 75 | 3.0 | 4.0 | 0.00 | 0.00 | 0.00 | 50 | 984.8 |
| 20260901220234 | 92 | 164 | 2.0 | 2.0 | 0.00 | 0.00 | 0.00 | 49 | 985.1 |
| 20260901215734 | 91 | 260 | 1.0 | 4.0 | 0.00 | 0.00 | 0.00 | 50 | 984.8 |
| 20260901215234 | 91 | 196 | 0.0 | 4.0 | 0.00 | 0.00 | 0.00 | 51 | 985.1 |
| 20260901214735 | 90 | 151 | 2.0 | 4.0 | 0.00 | 0.00 | 0.00 | 52 | 984.8 |
| 20260901214235 | 90 | 192 | 0.0 | 3.0 | 0.00 | 0.00 | 0.00 | 53 | 985.1 |
| 20260901213734 | 89 | 297 | 0.0 | 2.0 | 0.00 | 0.00 | 0.00 | 54 | 985.1 |
| 20260901213234 | 89 | 174 | 0.0 | 3.0 | 0.00 | 0.00 | 0.00 | 54 | 984.8 |
| 20260901212734 | 89 | 72 | 1.0 | 4.0 | 0.00 | 0.00 | 0.00 | 53 | 984.8 |
| 20260901212235 | 89 | 129 | 1.0 | 4.0 | 0.00 | 0.00 | 0.00 | 52 | 984.8 |
| 20260901211711 | 90 | 104 | 2.0 | 6.0 | 0.00 | 0.00 | 0.00 | 53 | 984.8 |
| 20260901211211 | 90 | 126 | 2.0 | 6.0 | 0.00 | 0.00 | 0.00 | 52 | 984.8 |
| 20260901210711 | 90 | 110 | 4.0 | 9.0 | 0.00 | 0.00 | 0.00 | 52 | 984.8 |
| 20260901210212 | 90 | 124 | 4.0 | 9.0 | 0.00 | 0.00 | 0.00 | 51 | 984.8 |
| 20260901205711 | 90 | 129 | 8.0 | 10.0 | 0.00 | 0.00 | 0.00 | 52 | 985.1 |
| 20260901205212 | 91 | 122 | 5.0 | 10.0 | 0.00 | 0.00 | 0.00 | 49 | 985.1 |
| 20260901204711 | 93 | 169 | 5.0 | 9.0 | 0.00 | 0.00 | 0.00 | 46 | 985.1 |
| 20260901204212 | 93 | 198 | 1.0 | 6.0 | 0.00 | 0.00 | 0.00 | 44 | 985.1 |
| 20260901203711 | 92 | 236 | 1.0 | 9.0 | 0.00 | 0.00 | 0.00 | 47 | 985.1 |
| 20260901203211 | 92 | 107 | 3.0 | 10.0 | 0.00 | 0.00 | 0.00 | 46 | 985.4 |
| 20260901202712 | 92 | 129 | 3.0 | 9.0 | 0.00 | 0.00 | 0.00 | 46 | 985.1 |
| 20260901202211 | 92 | 127 | 5.0 | 7.0 | 0.00 | 0.00 | 0.00 | 47 | 985.1 |
| 20260901201712 | 92 | 104 | 3.0 | 7.0 | 0.00 | 0.00 | 0.00 | 48 | 985.4 |
| 20260901201212 | 91 | 148 | 6.0 | 7.0 | 0.00 | 0.00 | 0.00 | 48 | 985.4 |
| 20260901200712 | 91 | 191 | 3.0 | 9.0 | 0.00 | 0.00 | 0.00 | 49 | 985.4 |
| 20260901200211 | 91 | 183 | 3.0 | 12.0 | 0.00 | 0.00 | 0.00 | 48 | 985.4 |
| 20260901195712 | 91 | 163 | 5.0 | 12.0 | 0.00 | 0.00 | 0.00 | 47 | 985.4 |
| 20260901195211 | 93 | 137 | 6.0 | 9.0 | 0.00 | 0.00 | 0.00 | 47 | 985.4 |
| 20260901194712 | 93 | 114 | 2.0 | 6.0 | 0.00 | 0.00 | 0.00 | 46 | 985.4 |
| 20260901194212 | 93 | 156 | 5.0 | 6.0 | 0.00 | 0.00 | 0.00 | 47 | 985.4 |
| 20260901193712 | 93 | 125 | 3.0 | 7.0 | 0.00 | 0.00 | 0.00 | 45 | 985.4 |
| 20260901193212 | 93 | 290 | 2.0 | 7.0 | 0.00 | 0.00 | 0.00 | 48 | 985.4 |
| 20260901192712 | 92 | 205 | 0.0 | 7.0 | 0.00 | 0.00 | 0.00 | 48 | 985.8 |
| 20260901192212 | 91 | 87 | 2.0 | 7.0 | 0.00 | 0.00 | 0.00 | 51 | 985.8 |
| 20260901191712 | 90 | 134 | 2.0 | 5.0 | 0.00 | 0.00 | 0.00 | 52 | 985.8 |
| 20260901191212 | 89 | 106 | 3.0 | 6.0 | 0.00 | 0.00 | 0.00 | 52 | 985.8 |
| 20260901190712 | 89 | 59 | 6.0 | 9.0 | 0.00 | 0.00 | 0.00 | 53 | 985.8 |
| 20260901190212 | 90 | 122 | 3.0 | 12.0 | 0.00 | 0.00 | 0.00 | 51 | 985.8 |
| 20260901185711 | 92 | 119 | 5.0 | 12.0 | 0.00 | 0.00 | 0.00 | 49 | 986.1 |
| 20260901185211 | 92 | 64 | 2.0 | 5.0 | 0.00 | 0.00 | 0.00 | 48 | 986.1 |
| 20260901184711 | 92 | 136 | 1.0 | 7.0 | 0.00 | 0.00 | 0.00 | 50 | 986.1 |
| 20260901184211 | 91 | 149 | 5.0 | 8.0 | 0.00 | 0.00 | 0.00 | 47 | 986.1 |
| 20260901183711 | 91 | 92 | 2.0 | 8.0 | 0.00 | 0.00 | 0.00 | 49 | 986.5 |
| 20260901183211 | 91 | 95 | 3.0 | 7.0 | 0.00 | 0.00 | 0.00 | 48 | 986.5 |
| 20260901182711 | 91 | 94 | 4.0 | 7.0 | 0.00 | 0.00 | 0.00 | 50 | 986.5 |
| 20260901182211 | 90 | 44 | 3.0 | 5.0 | 0.00 | 0.00 | 0.00 | 53 | 986.5 |
| 20260901181711 | 89 | 31 | 2.0 | 7.0 | 0.00 | 0.00 | 0.00 | 52 | 986.8 |
| 20260901181211 | 89 | 344 | 5.0 | 7.0 | 0.00 | 0.00 | 0.00 | 53 | 986.5 |
| 20260901180711 | 89 | 1 | 5.0 | 6.0 | 0.00 | 0.00 | 0.00 | 53 | 986.5 |
| 20260901180211 | 90 | 13 | 5.0 | 9.0 | 0.00 | 0.00 | 0.00 | 51 | 986.5 |
| 20260901175711 | 91 | 57 | 3.0 | 9.0 | 0.00 | 0.00 | 0.00 | 51 | 986.5 |
| 20260901175211 | 91 | 25 | 5.0 | 7.0 | 0.00 | 0.00 | 0.00 | 50 | 986.8 |
| 20260901174711 | 91 | 66 | 6.0 | 7.0 | 0.00 | 0.00 | 0.00 | 49 | 986.8 |
| 20260901174211 | 91 | 27 | 2.0 | 7.0 | 0.00 | 0.00 | 0.00 | 48 | 986.8 |
| 20260901173711 | 91 | 214 | 1.0 | 5.0 | 0.00 | 0.00 | 0.00 | 50 | 986.8 |
| 20260901173212 | 90 | 224 | 1.0 | 7.0 | 0.00 | 0.00 | 0.00 | 51 | 987.1 |
| 20260901172711 | 90 | 267 | 3.0 | 7.0 | 0.00 | 0.00 | 0.00 | 50 | 987.1 |
| 20260901172212 | 90 | 274 | 5.0 | 7.0 | 0.00 | 0.00 | 0.00 | 50 | 986.8 |
| 20260901171712 | 89 | 281 | 2.0 | 7.0 | 0.00 | 0.00 | 0.00 | 52 | 987.1 |
| 20260901171211 | 89 | 317 | 3.0 | 8.0 | 0.00 | 0.00 | 0.00 | 52 | 987.5 |
| 20260901170711 | 89 | 351 | 5.0 | 11.0 | 0.00 | 0.00 | 0.00 | 52 | 987.5 |
| 20260901170211 | 89 | 354 | 6.0 | 11.0 | 0.00 | 0.00 | 0.00 | 51 | 987.5 |
| 20260901165711 | 89 | 328 | 4.0 | 6.0 | 0.00 | 0.00 | 0.00 | 52 | 987.5 |
| 20260901165211 | 89 | 36 | 3.0 | 12.0 | 0.00 | 0.00 | 0.00 | 54 | 987.5 |
| 20260901164712 | 88 | 256 | 3.0 | 12.0 | 0.00 | 0.00 | 0.00 | 56 | 987.5 |
| 20260901164211 | 89 | 289 | 5.0 | 12.0 | 0.00 | 0.00 | 0.00 | 54 | 987.5 |
| 20260901163711 | 89 | 289 | 4.0 | 10.0 | 0.00 | 0.00 | 0.00 | 56 | 987.5 |
| 20260901163211 | 89 | 5 | 3.0 | 10.0 | 0.00 | 0.00 | 0.00 | 54 | 987.5 |
| 20260901162711 | 90 | 216 | 3.0 | 5.0 | 0.00 | 0.00 | 0.00 | 54 | 987.8 |
| 20260901162211 | 89 | 264 | 3.0 | 5.0 | 0.00 | 0.00 | 0.00 | 55 | 987.8 |
| 20260901161713 | 88 | 267 | 2.0 | 9.0 | 0.00 | 0.00 | 0.00 | 57 | 987.8 |
| 20260901161212 | 87 | 337 | 4.0 | 10.0 | 0.00 | 0.00 | 0.00 | 59 | 987.8 |
| 20260901160713 | 88 | 356 | 3.0 | 10.0 | 0.00 | 0.00 | 0.00 | 57 | 987.8 |
| 20260901160212 | 87 | 253 | 3.0 | 11.0 | 0.00 | 0.00 | 0.00 | 59 | 987.8 |
| 20260901155712 | 87 | 232 | 2.0 | 11.0 | 0.00 | 0.00 | 0.00 | 59 | 987.8 |
| 20260901155211 | 87 | 327 | 4.0 | 8.0 | 0.00 | 0.00 | 0.00 | 59 | 988.2 |
| 20260901154711 | 87 | 327 | 5.0 | 11.0 | 0.00 | 0.00 | 0.00 | 61 | 988.2 |
| 20260901154211 | 87 | 287 | 7.0 | 11.0 | 0.00 | 0.00 | 0.00 | 61 | 987.8 |
| 20260901153711 | 87 | 256 | 4.0 | 8.0 | 0.00 | 0.00 | 0.00 | 61 | 987.8 |
| 20260901153212 | 87 | 247 | 3.0 | 10.0 | 0.00 | 0.00 | 0.00 | 62 | 988.2 |
| 20260901152711 | 87 | 290 | 7.0 | 10.0 | 0.00 | 0.00 | 0.00 | 60 | 987.8 |
| 20260901152212 | 86 | 289 | 6.0 | 7.0 | 0.00 | 0.00 | 0.00 | 61 | 988.2 |
| 20260901151711 | 86 | 251 | 4.0 | 9.0 | 0.00 | 0.00 | 0.00 | 62 | 987.8 |
| 20260901151211 | 86 | 198 | 4.0 | 9.0 | 0.00 | 0.00 | 0.00 | 62 | 987.8 |
| 20260901150712 | 86 | 261 | 6.0 | 8.0 | 0.00 | 0.00 | 0.00 | 62 | 987.8 |
| 20260901150211 | 86 | 287 | 2.0 | 8.0 | 0.00 | 0.00 | 0.00 | 63 | 987.5 |
| 20260901145711 | 86 | 297 | 1.0 | 6.0 | 0.00 | 0.00 | 0.00 | 63 | 987.8 |
| 20260901145211 | 86 | 275 | 5.0 | 8.0 | 0.00 | 0.00 | 0.00 | 63 | 987.8 |
| 20260901144711 | 86 | 240 | 3.0 | 8.0 | 0.00 | 0.00 | 0.00 | 63 | 987.8 |
| 20260901144211 | 86 | 255 | 5.0 | 9.0 | 0.00 | 0.00 | 0.00 | 63 | 987.5 |
| 20260901143711 | 85 | 250 | 4.0 | 9.0 | 0.00 | 0.00 | 0.00 | 63 | 987.8 |
| 20260901143211 | 85 | 195 | 5.0 | 8.0 | 0.00 | 0.00 | 0.00 | 63 | 987.8 |
| 20260901142711 | 85 | 257 | 1.0 | 8.0 | 0.00 | 0.00 | 0.00 | 64 | 988.2 |
| 20260901142212 | 85 | 214 | 2.0 | 7.0 | 0.00 | 0.00 | 0.00 | 64 | 987.8 |
| 20260901141711 | 85 | 234 | 3.0 | 7.0 | 0.00 | 0.00 | 0.00 | 64 | 987.5 |
| 20260901141212 | 85 | 220 | 2.0 | 7.0 | 0.00 | 0.00 | 0.00 | 64 | 987.5 |
| 20260901140711 | 85 | 253 | 2.0 | 3.0 | 0.00 | 0.00 | 0.00 | 64 | 987.8 |
| 20260901140211 | 85 | 186 | 1.0 | 3.0 | 0.00 | 0.00 | 0.00 | 66 | 987.8 |
| 20260901135711 | 85 | 156 | 0.0 | 3.0 | 0.00 | 0.00 | 0.00 | 67 | 988.2 |
| 20260901135211 | 84 | 217 | 2.0 | 3.0 | 0.00 | 0.00 | 0.00 | 67 | 987.5 |